Time;durP1;ratioP1;P1;durP2;ratioP2;P2;SDS_P1;SDS_P2;PMS_P1;PMS_P2;Temp;Humidity;BMP_temperature;BMP_pressure;BME280_temperature;BME280_humidity;BME280_pressure;Samples;Min_cycle;Max_cycle;Signal;HPM_P1;HPM_P2
2021/03/08 00:00:59;;;;;;;384.33;173.05;;;;;;;;;;5118302;28;20046;-85
2021/03/08 00:03:25;;;;;;;386.90;169.73;;;;;;;;;;5118553;28;20305;-85
2021/03/08 00:05:51;;;;;;;379.05;169.35;;;;;;;;;;5117470;28;20463;-83
2021/03/08 00:08:17;;;;;;;369.55;161.48;;;;;;;;;;5118736;28;20030;-85
2021/03/08 00:10:43;;;;;;;357.48;158.63;;;;;;;;;;5118516;28;20034;-85
2021/03/08 00:13:09;;;;;;;363.40;157.18;;;;;;;;;;5118468;28;20045;-85
2021/03/08 00:15:35;;;;;;;357.92;155.63;;;;;;;;;;5118325;28;20049;-85
2021/03/08 00:18:01;;;;;;;333.27;147.55;;;;;;;;;;5118189;28;20024;-85
2021/03/08 00:20:28;;;;;;;311.50;141.48;;;;;;;;;;5118133;28;20488;-85
2021/03/08 00:22:55;;;;;;;261.50;123.07;;;;;;;;;;5117207;28;20064;-84
2021/03/08 00:25:23;;;;;;;235.75;110.43;;;;;;;;;;5117971;28;20417;-84
2021/03/08 00:27:49;;;;;;;211.25;97.82;;;;;;;;;;5117093;28;20020;-84
2021/03/08 00:30:16;;;;;;;212.10;98.68;;;;;;;;;;5118076;28;20440;-84
2021/03/08 00:33:01;;;;;;;200.40;93.43;;;;;;;;;;5117066;28;20051;-86
2021/03/08 00:35:27;;;;;;;195.85;92.10;;;;;;;;;;5118287;28;20024;-86
2021/03/08 00:37:53;;;;;;;213.88;99.95;;;;;;;;;;5117758;28;20060;-85
2021/03/08 00:40:21;;;;;;;222.30;106.90;;;;;;;;;;5118397;28;20111;-85
2021/03/08 00:42:47;;;;;;;222.27;101.93;;;;;;;;;;5117687;28;20020;-86
2021/03/08 00:45:15;;;;;;;217.85;100.35;;;;;;;;;;5118210;28;20031;-86
2021/03/08 00:47:41;;;;;;;232.50;105.72;;;;;;;;;;5118051;28;20065;-86
2021/03/08 00:50:08;;;;;;;215.70;99.78;;;;;;;;;;5118206;28;20112;-86
2021/03/08 00:52:34;;;;;;;213.15;99.75;;;;;;;;;;5116439;28;20063;-85
2021/03/08 00:55:00;;;;;;;204.82;95.13;;;;;;;;;;5117870;28;20020;-84
2021/03/08 00:57:26;;;;;;;202.88;94.70;;;;;;;;;;5117866;28;20020;-84
2021/03/08 00:59:52;;;;;;;212.38;98.65;;;;;;;;;;5116282;28;20067;-84
2021/03/08 01:02:18;;;;;;;233.95;107.75;;;;;;;;;;5117787;28;20040;-84
2021/03/08 01:04:44;;;;;;;251.80;116.72;;;;;;;;;;5117422;28;20440;-85
2021/03/08 01:07:10;;;;;;;256.50;117.88;;;;;;;;;;5117155;28;20393;-84
2021/03/08 01:09:36;;;;;;;271.27;120.97;;;;;;;;;;5117827;28;20099;-84
2021/03/08 01:12:03;;;;;;;260.85;117.63;;;;;;;;;;5117656;28;20024;-85
2021/03/08 01:14:29;;;;;;;284.80;130.18;;;;;;;;;;5117938;28;20031;-84
2021/03/08 01:16:55;;;;;;;296.70;133.15;;;;;;;;;;5117633;28;20027;-85
2021/03/08 01:19:21;;;;;;;305.33;137.20;;;;;;;;;;5117568;28;20050;-84
2021/03/08 01:21:47;;;;;;;308.27;138.55;;;;;;;;;;5117810;28;20023;-85
2021/03/08 01:24:13;;;;;;;327.60;147.02;;;;;;;;;;5117392;28;20035;-85
2021/03/08 01:26:39;;;;;;;325.42;146.77;;;;;;;;;;5118144;28;20023;-86
2021/03/08 01:29:05;;;;;;;311.27;138.27;;;;;;;;;;5121285;28;20466;-85
2021/03/08 01:31:31;;;;;;;281.90;128.73;;;;;;;;;;5121371;28;20069;-85
2021/03/08 01:33:57;;;;;;;280.13;131.27;;;;;;;;;;5120143;28;20035;-85
2021/03/08 01:36:23;;;;;;;301.83;136.50;;;;;;;;;;5121072;28;20120;-85
2021/03/08 01:38:49;;;;;;;285.40;134.88;;;;;;;;;;5121005;28;20019;-85
2021/03/08 01:41:16;;;;;;;284.50;131.10;;;;;;;;;;5121631;28;20065;-84
2021/03/08 01:43:42;;;;;;;280.85;130.15;;;;;;;;;;5121180;28;20027;-85
2021/03/08 01:46:08;;;;;;;281.13;127.28;;;;;;;;;;5121297;28;20072;-85
2021/03/08 01:48:34;;;;;;;275.95;123.72;;;;;;;;;;5121064;28;20094;-85
2021/03/08 01:51:00;;;;;;;237.20;110.28;;;;;;;;;;5120929;28;20039;-84
2021/03/08 01:53:28;;;;;;;202.18;98.03;;;;;;;;;;5120841;28;20030;-85
2021/03/08 01:55:54;;;;;;;198.20;97.43;;;;;;;;;;5121082;28;20020;-85
2021/03/08 01:58:21;;;;;;;187.88;90.65;;;;;;;;;;5120750;28;20152;-85
2021/03/08 02:00:47;;;;;;;205.32;96.57;;;;;;;;;;5120798;28;20426;-85
2021/03/08 02:03:13;;;;;;;201.00;95.22;;;;;;;;;;5120602;28;20022;-84
2021/03/08 02:05:40;;;;;;;195.20;93.93;;;;;;;;;;5120931;28;20027;-85
2021/03/08 02:08:07;;;;;;;190.95;91.65;;;;;;;;;;5120681;28;20020;-84
2021/03/08 02:10:37;;;;;;;186.77;93.50;;;;;;;;;;5120812;28;20030;-85
2021/03/08 02:13:38;;;;;;;197.13;95.82;;;;;;;;;;5120810;28;20098;-85
2021/03/08 02:16:23;;;;;;;195.60;95.00;;;;;;;;;;5058199;28;20029;-85
2021/03/08 02:19:07;;;;;;;196.90;93.93;;;;;;;;;;5058102;28;20033;-84
2021/03/08 02:21:52;;;;;;;200.10;97.45;;;;;;;;;;5058044;28;20032;-84
2021/03/08 02:24:24;;;;;;;215.07;100.60;;;;;;;;;;5041192;28;20459;-84
2021/03/08 02:26:56;;;;;;;206.53;99.43;;;;;;;;;;5058003;28;20021;-84
2021/03/08 02:29:51;;;;;;;212.40;100.03;;;;;;;;;;5057614;28;20335;-84
2021/03/08 02:32:22;;;;;;;212.52;101.70;;;;;;;;;;5057645;28;20032;-84
2021/03/08 02:34:52;;;;;;;221.57;105.20;;;;;;;;;;5057799;28;20032;-85
2021/03/08 02:37:22;;;;;;;221.95;105.78;;;;;;;;;;5057753;28;20041;-84
2021/03/08 02:39:51;;;;;;;227.88;107.43;;;;;;;;;;5058087;28;20057;-85
2021/03/08 02:42:22;;;;;;;216.48;103.65;;;;;;;;;;5057891;28;20091;-85
2021/03/08 02:44:48;;;;;;;188.85;92.85;;;;;;;;;;5057604;28;20033;-84
2021/03/08 02:47:17;;;;;;;185.65;93.55;;;;;;;;;;5057717;28;20040;-85
2021/03/08 02:49:44;;;;;;;166.82;83.80;;;;;;;;;;5080721;28;20103;-84
2021/03/08 02:52:11;;;;;;;176.13;83.70;;;;;;;;;;5120012;28;20019;-85
2021/03/08 02:54:39;;;;;;;164.55;82.72;;;;;;;;;;5120191;28;20098;-84
2021/03/08 02:57:08;;;;;;;161.20;77.88;;;;;;;;;;5119753;28;20031;-85
2021/03/08 02:59:37;;;;;;;167.50;81.50;;;;;;;;;;5118970;28;20117;-84
2021/03/08 03:02:05;;;;;;;153.73;76.63;;;;;;;;;;5119668;28;20048;-84
2021/03/08 03:04:32;;;;;;;161.05;77.47;;;;;;;;;;5119911;28;20096;-85
2021/03/08 03:06:58;;;;;;;157.93;79.00;;;;;;;;;;5119880;28;20095;-84
2021/03/08 03:09:25;;;;;;;161.07;77.95;;;;;;;;;;5119722;28;20022;-84
2021/03/08 03:11:55;;;;;;;162.05;78.90;;;;;;;;;;5119596;28;20019;-84
2021/03/08 03:14:22;;;;;;;153.35;78.50;;;;;;;;;;5119483;28;20050;-84
2021/03/08 03:16:49;;;;;;;166.27;78.75;;;;;;;;;;5119453;28;20317;-84
2021/03/08 03:19:16;;;;;;;196.93;80.68;;;;;;;;;;5119165;28;20042;-83
2021/03/08 03:21:44;;;;;;;161.30;77.85;;;;;;;;;;5118226;28;20035;-84
2021/03/08 03:24:10;;;;;;;157.70;75.50;;;;;;;;;;5119312;28;20051;-84
2021/03/08 03:26:36;;;;;;;156.45;74.95;;;;;;;;;;5119434;28;20023;-84
2021/03/08 03:29:03;;;;;;;166.07;77.68;;;;;;;;;;5119444;28;20020;-85
2021/03/08 03:31:30;;;;;;;167.00;77.70;;;;;;;;;;5119474;28;20027;-84
2021/03/08 03:33:57;;;;;;;218.07;102.18;;;;;;;;;;5119137;28;20421;-80
2021/03/08 03:36:23;;;;;;;177.30;83.93;;;;;;;;;;5118727;28;20106;-84
2021/03/08 03:38:51;;;;;;;156.70;76.32;;;;;;;;;;5118011;28;20406;-84
2021/03/08 03:41:17;;;;;;;161.77;76.50;;;;;;;;;;5118950;28;20424;-86
2021/03/08 03:43:43;;;;;;;159.98;77.80;;;;;;;;;;5118834;28;20398;-87
2021/03/08 03:46:09;;;;;;;153.73;76.05;;;;;;;;;;5117668;28;20063;-86
2021/03/08 03:48:35;;;;;;;169.32;78.93;;;;;;;;;;5119157;28;20035;-86
2021/03/08 03:51:01;;;;;;;208.55;95.82;;;;;;;;;;5118259;28;20424;-86
2021/03/08 03:53:27;;;;;;;216.90;97.53;;;;;;;;;;5117847;28;20114;-86
2021/03/08 03:55:54;;;;;;;194.00;92.40;;;;;;;;;;5118542;28;20016;-86
2021/03/08 03:58:35;;;;;;;199.70;95.15;;;;;;;;;;5118621;28;20026;-86
2021/03/08 04:01:03;;;;;;;203.40;93.95;;;;;;;;;;5118574;28;20067;-86
2021/03/08 04:03:39;;;;;;;205.00;95.30;;;;;;;;;;5118779;28;20111;-86
2021/03/08 04:06:06;;;;;;;194.50;93.22;;;;;;;;;;5118450;28;20028;-83
2021/03/08 04:08:32;;;;;;;187.73;87.82;;;;;;;;;;5118454;28;20019;-83
2021/03/08 04:11:01;;;;;;;185.30;86.97;;;;;;;;;;5116989;28;20042;-84
2021/03/08 04:13:28;;;;;;;185.85;87.07;;;;;;;;;;5118321;28;20020;-84
2021/03/08 04:15:55;;;;;;;178.38;87.35;;;;;;;;;;5118393;28;20076;-83
2021/03/08 04:18:22;;;;;;;178.63;86.68;;;;;;;;;;5118530;28;20342;-84
2021/03/08 04:20:48;;;;;;;185.00;88.25;;;;;;;;;;5118188;28;20076;-83
2021/03/08 04:23:15;;;;;;;190.80;88.93;;;;;;;;;;5116667;28;20062;-83
2021/03/08 04:25:45;;;;;;;186.98;91.68;;;;;;;;;;5117308;28;20026;-83
2021/03/08 04:28:12;;;;;;;220.10;102.95;;;;;;;;;;5116873;28;20051;-82
2021/03/08 04:30:38;;;;;;;229.00;105.85;;;;;;;;;;5118178;28;20416;-82
2021/03/08 04:33:04;;;;;;;215.57;101.90;;;;;;;;;;5118242;28;20057;-82
2021/03/08 04:35:31;;;;;;;219.77;100.78;;;;;;;;;;5118023;28;20102;-82
2021/03/08 04:37:58;;;;;;;212.48;97.22;;;;;;;;;;5116690;28;20016;-81
2021/03/08 04:40:24;;;;;;;201.05;97.25;;;;;;;;;;5117896;28;20055;-82
2021/03/08 04:42:51;;;;;;;196.27;94.28;;;;;;;;;;5117815;28;20134;-82
2021/03/08 04:45:18;;;;;;;190.73;92.97;;;;;;;;;;5117810;28;20040;-84
2021/03/08 04:47:45;;;;;;;200.35;97.63;;;;;;;;;;5117797;28;20413;-83
2021/03/08 04:50:12;;;;;;;199.73;98.22;;;;;;;;;;5116437;28;20101;-84
2021/03/08 04:52:39;;;;;;;217.10;102.60;;;;;;;;;;5117684;28;20027;-83
2021/03/08 04:55:09;;;;;;;223.93;104.00;;;;;;;;;;5117788;28;20029;-83
2021/03/08 04:57:36;;;;;;;227.45;105.72;;;;;;;;;;5117217;28;20027;-83
2021/03/08 05:00:04;;;;;;;285.48;121.35;;;;;;;;;;5109222;28;20056;-84
2021/03/08 05:02:32;;;;;;;265.95;118.35;;;;;;;;;;5099297;28;20052;-84
2021/03/08 05:04:59;;;;;;;275.55;114.57;;;;;;;;;;5115238;28;20035;-87
2021/03/08 05:07:26;;;;;;;242.65;106.20;;;;;;;;;;5119036;28;20138;-92
2021/03/08 05:09:54;;;;;;;241.80;110.13;;;;;;;;;;5117264;28;20410;-88
2021/03/08 05:12:21;;;;;;;418.48;171.02;;;;;;;;;;5121098;28;20027;-87
2021/03/08 05:14:47;;;;;;;450.95;190.82;;;;;;;;;;5121906;28;20058;-87
2021/03/08 05:17:15;;;;;;;422.58;177.73;;;;;;;;;;5122136;28;20031;-87
2021/03/08 05:19:41;;;;;;;400.00;168.05;;;;;;;;;;5121948;28;20023;-87
2021/03/08 05:22:08;;;;;;;337.23;138.88;;;;;;;;;;5121859;28;20084;-88
2021/03/08 05:24:34;;;;;;;276.88;122.50;;;;;;;;;;5121650;28;20402;-87
2021/03/08 05:27:08;;;;;;;261.70;122.18;;;;;;;;;;5121653;28;20027;-86
2021/03/08 05:29:34;;;;;;;281.30;127.78;;;;;;;;;;5121968;28;20026;-88
2021/03/08 05:32:01;;;;;;;296.08;144.18;;;;;;;;;;5121736;28;20023;-88
2021/03/08 05:34:28;;;;;;;316.65;160.20;;;;;;;;;;5121540;28;20024;-88
2021/03/08 05:36:54;;;;;;;329.58;162.43;;;;;;;;;;5120234;28;20057;-87
2021/03/08 05:39:21;;;;;;;315.98;141.65;;;;;;;;;;5121567;28;20110;-88
2021/03/08 05:41:47;;;;;;;297.13;135.85;;;;;;;;;;5120295;28;20035;-87
2021/03/08 05:44:13;;;;;;;313.77;136.65;;;;;;;;;;5121366;28;20027;-87
2021/03/08 05:46:55;;;;;;;336.67;149.05;;;;;;;;;;5121532;28;20053;-88
2021/03/08 05:49:26;;;;;;;286.40;129.13;;;;;;;;;;5121419;28;20454;-88
2021/03/08 05:52:07;;;;;;;283.00;133.25;;;;;;;;;;5120302;28;20087;-86
2021/03/08 05:54:52;;;;;;;296.92;148.27;;;;;;;;;;5120895;28;20028;-87
2021/03/08 05:57:24;;;;;;;383.52;182.85;;;;;;;;;;5120272;28;20026;-87
2021/03/08 06:00:02;;;;;;;391.23;207.68;;;;;;;;;;5121071;28;20069;-86
2021/03/08 06:02:52;;;;;;;352.38;186.98;;;;;;;;;;5120805;28;20047;-86
2021/03/08 06:05:37;;;;;;;382.10;177.60;;;;;;;;;;5120145;28;20035;-87
2021/03/08 06:08:12;;;;;;;306.23;142.25;;;;;;;;;;5120999;28;20031;-86
2021/03/08 06:10:47;;;;;;;332.45;157.25;;;;;;;;;;5121245;28;20016;-88
2021/03/08 06:13:16;;;;;;;420.35;202.63;;;;;;;;;;5120245;28;20039;-88
2021/03/08 06:15:44;;;;;;;521.17;255.50;;;;;;;;;;5119790;28;20309;-88
2021/03/08 06:18:10;;;;;;;527.05;258.73;;;;;;;;;;5120901;28;20028;-87
2021/03/08 06:20:36;;;;;;;511.08;248.45;;;;;;;;;;5119861;28;20024;-87
2021/03/08 06:23:03;;;;;;;459.83;224.15;;;;;;;;;;5120891;28;20062;-87
2021/03/08 06:25:32;;;;;;;440.02;215.98;;;;;;;;;;5120732;28;20027;-86
2021/03/08 06:27:58;;;;;;;441.98;226.75;;;;;;;;;;5120728;28;20024;-87
2021/03/08 06:30:25;;;;;;;413.00;210.10;;;;;;;;;;5120339;28;20069;-88
2021/03/08 06:32:51;;;;;;;368.98;189.32;;;;;;;;;;5120434;28;20028;-87
2021/03/08 06:35:18;;;;;;;429.02;199.05;;;;;;;;;;5120438;28;20437;-87
2021/03/08 06:37:46;;;;;;;404.42;183.02;;;;;;;;;;5120358;28;20019;-86
2021/03/08 06:40:12;;;;;;;344.35;168.38;;;;;;;;;;5120380;28;20436;-88
2021/03/08 06:42:39;;;;;;;323.15;154.07;;;;;;;;;;5119813;28;20038;-87
2021/03/08 06:45:07;;;;;;;400.80;157.80;;;;;;;;;;5120382;28;20020;-87
2021/03/08 06:47:33;;;;;;;359.92;140.43;;;;;;;;;;5120182;28;20417;-88
2021/03/08 06:49:59;;;;;;;231.10;106.47;;;;;;;;;;5120376;28;20027;-87
2021/03/08 06:52:38;;;;;;;192.45;99.65;;;;;;;;;;5120105;28;20320;-87
2021/03/08 06:55:04;;;;;;;190.40;97.65;;;;;;;;;;5120282;28;20034;-86
2021/03/08 06:57:37;;;;;;;164.88;83.32;;;;;;;;;;5119985;28;20134;-87
2021/03/08 07:00:06;;;;;;;227.20;103.95;;;;;;;;;;5118945;28;20032;-87
2021/03/08 07:02:42;;;;;;;192.00;93.65;;;;;;;;;;5118393;28;20421;-87
2021/03/08 07:05:09;;;;;;;154.48;78.05;;;;;;;;;;5119505;28;20080;-86
2021/03/08 07:07:47;;;;;;;198.88;86.13;;;;;;;;;;5118828;28;20389;-86
2021/03/08 07:10:14;;;;;;;204.80;88.35;;;;;;;;;;5118634;28;20027;-86
2021/03/08 07:12:49;;;;;;;229.82;103.03;;;;;;;;;;5119888;28;20106;-86
2021/03/08 07:15:15;;;;;;;160.27;82.25;;;;;;;;;;5118714;28;20157;-86
2021/03/08 07:17:41;;;;;;;131.13;67.88;;;;;;;;;;5119615;28;20034;-86
2021/03/08 07:20:15;;;;;;;111.80;58.70;;;;;;;;;;5119731;28;20122;-87
2021/03/08 07:22:41;;;;;;;192.57;78.68;;;;;;;;;;5118544;28;20034;-86
2021/03/08 07:25:27;;;;;;;237.43;85.93;;;;;;;;;;5117703;28;20414;-85
2021/03/08 07:27:58;;;;;;;210.00;76.93;;;;;;;;;;5119331;28;20024;-86
2021/03/08 07:30:30;;;;;;;110.82;50.08;;;;;;;;;;5119299;28;20032;-86
2021/03/08 07:32:56;;;;;;;142.63;60.25;;;;;;;;;;5119303;28;20052;-90
2021/03/08 07:35:42;;;;;;;132.23;55.08;;;;;;;;;;5119479;28;20031;-86
2021/03/08 07:38:15;;;;;;;127.35;55.35;;;;;;;;;;5119335;28;20068;-86
2021/03/08 07:40:46;;;;;;;129.23;56.63;;;;;;;;;;5119271;28;20039;-87
2021/03/08 07:43:19;;;;;;;87.55;44.53;;;;;;;;;;5119097;28;20026;-86
2021/03/08 07:45:46;;;;;;;106.88;48.53;;;;;;;;;;5118954;28;20030;-86
2021/03/08 07:48:12;;;;;;;80.45;38.58;;;;;;;;;;5118927;28;20305;-86
2021/03/08 07:50:39;;;;;;;74.93;36.10;;;;;;;;;;5118895;28;20031;-87
2021/03/08 07:53:22;;;;;;;63.53;36.08;;;;;;;;;;5119004;28;20026;-86
2021/03/08 07:55:48;;;;;;;64.70;33.13;;;;;;;;;;5118820;28;20034;-86
2021/03/08 07:58:16;;;;;;;52.97;28.52;;;;;;;;;;5118759;28;20019;-86
2021/03/08 08:00:42;;;;;;;46.20;26.10;;;;;;;;;;5118837;28;20325;-86
2021/03/08 08:03:08;;;;;;;43.67;25.77;;;;;;;;;;5118754;28;20028;-86
2021/03/08 08:05:34;;;;;;;48.70;27.83;;;;;;;;;;5118492;28;20034;-85
2021/03/08 08:08:01;;;;;;;50.88;30.02;;;;;;;;;;5118661;28;20024;-86
2021/03/08 08:10:28;;;;;;;47.33;29.40;;;;;;;;;;5118650;28;20024;-86
2021/03/08 08:12:59;;;;;;;54.22;30.50;;;;;;;;;;5118554;28;20023;-86
2021/03/08 08:15:27;;;;;;;46.90;27.50;;;;;;;;;;5118897;28;20107;-85
2021/03/08 08:17:54;;;;;;;56.70;31.88;;;;;;;;;;5118422;28;20035;-85
2021/03/08 08:20:21;;;;;;;43.25;25.55;;;;;;;;;;5117354;28;20027;-86
2021/03/08 08:23:00;;;;;;;53.30;29.38;;;;;;;;;;5118585;28;20023;-86
2021/03/08 08:25:27;;;;;;;62.00;30.60;;;;;;;;;;5117238;28;20019;-85
2021/03/08 08:27:54;;;;;;;60.47;31.10;;;;;;;;;;5116857;28;20038;-86
2021/03/08 08:30:24;;;;;;;45.45;27.90;;;;;;;;;;5118436;28;20034;-86
2021/03/08 08:32:54;;;;;;;44.22;26.13;;;;;;;;;;5117126;28;20023;-85
2021/03/08 08:35:24;;;;;;;53.03;29.60;;;;;;;;;;5118002;28;20057;-88
2021/03/08 08:38:08;;;;;;;50.83;30.30;;;;;;;;;;5118308;28;20031;-88
2021/03/08 08:40:35;;;;;;;50.15;30.55;;;;;;;;;;5118200;28;20039;-88
2021/03/08 08:43:16;;;;;;;54.33;29.25;;;;;;;;;;5118025;28;20024;-87
2021/03/08 08:45:43;;;;;;;45.25;24.88;;;;;;;;;;5118179;28;20027;-88
2021/03/08 08:48:10;;;;;;;39.47;21.65;;;;;;;;;;5118038;28;20515;-87
2021/03/08 08:50:50;;;;;;;31.95;21.05;;;;;;;;;;5117999;28;20409;-87
2021/03/08 08:53:31;;;;;;;40.58;22.00;;;;;;;;;;5117909;28;20044;-88
2021/03/08 08:55:57;;;;;;;36.03;22.10;;;;;;;;;;5116647;28;20028;-88
2021/03/08 08:58:25;;;;;;;32.17;20.52;;;;;;;;;;5117058;28;20028;-87
2021/03/08 09:01:09;;;;;;;37.70;21.90;;;;;;;;;;5117948;28;20047;-88
2021/03/08 09:03:55;;;;;;;36.22;21.17;;;;;;;;;;5118206;28;20068;-88
2021/03/08 09:06:42;;;;;;;37.55;20.63;;;;;;;;;;5118035;28;20145;-88
2021/03/08 09:09:08;;;;;;;32.30;19.70;;;;;;;;;;5117490;28;20318;-87
2021/03/08 09:11:45;;;;;;;35.85;23.35;;;;;;;;;;5117848;28;20081;-87
2021/03/08 09:14:28;;;;;;;38.05;21.55;;;;;;;;;;5118090;28;20020;-87
2021/03/08 09:17:11;;;;;;;32.28;19.00;;;;;;;;;;5116527;28;20032;-86
2021/03/08 09:19:37;;;;;;;32.47;19.65;;;;;;;;;;5118068;28;20042;-86
2021/03/08 09:22:22;;;;;;;29.17;17.98;;;;;;;;;;5118111;28;20020;-86
2021/03/08 09:24:52;;;;;;;36.25;20.40;;;;;;;;;;5117752;28;20295;-86
2021/03/08 09:27:21;;;;;;;38.85;22.10;;;;;;;;;;5117545;28;20026;-85
2021/03/08 09:29:48;;;;;;;40.85;21.60;;;;;;;;;;5117867;28;20023;-87
2021/03/08 09:32:14;;;;;;;46.20;26.15;;;;;;;;;;5117577;28;20020;-86
2021/03/08 09:34:40;;;;;;;37.20;22.92;;;;;;;;;;5117491;28;20037;-87
2021/03/08 09:37:07;;;;;;;33.92;20.85;;;;;;;;;;5117797;28;20019;-86
2021/03/08 09:39:33;;;;;;;31.00;21.05;;;;;;;;;;5117793;28;20024;-87
2021/03/08 09:42:02;;;;;;;26.70;18.63;;;;;;;;;;5117527;28;20059;-86
2021/03/08 09:44:41;;;;;;;25.52;17.15;;;;;;;;;;5117610;28;20122;-86
2021/03/08 09:47:07;;;;;;;26.38;17.58;;;;;;;;;;5117468;28;20015;-86
2021/03/08 09:49:53;;;;;;;25.65;16.98;;;;;;;;;;5121128;28;20039;-86
2021/03/08 09:52:32;;;;;;;30.88;19.33;;;;;;;;;;5120259;28;20353;-87
2021/03/08 09:54:58;;;;;;;30.30;19.02;;;;;;;;;;5119923;28;20032;-88
2021/03/08 09:57:35;;;;;;;28.70;17.20;;;;;;;;;;5119314;28;20413;-87
2021/03/08 10:00:02;;;;;;;27.08;17.02;;;;;;;;;;5121304;28;20031;-87
2021/03/08 10:02:28;;;;;;;32.40;19.60;;;;;;;;;;5120951;28;20103;-86
2021/03/08 10:04:57;;;;;;;29.67;18.35;;;;;;;;;;5121067;28;20427;-88
2021/03/08 10:07:23;;;;;;;28.70;17.60;;;;;;;;;;5121132;28;20031;-87
2021/03/08 10:09:50;;;;;;;39.88;21.15;;;;;;;;;;5119580;28;20032;-87
2021/03/08 10:12:24;;;;;;;30.67;19.83;;;;;;;;;;5120829;28;20027;-86
2021/03/08 10:14:58;;;;;;;47.45;27.20;;;;;;;;;;5120785;28;20039;-85
2021/03/08 10:17:24;;;;;;;36.20;21.23;;;;;;;;;;5120836;28;20310;-86
2021/03/08 10:19:54;;;;;;;36.72;21.80;;;;;;;;;;5120876;28;20118;-85
2021/03/08 10:22:32;;;;;;;35.90;21.80;;;;;;;;;;5120695;28;20035;-86
2021/03/08 10:25:00;;;;;;;46.20;27.80;;;;;;;;;;5120492;28;20428;-86
2021/03/08 10:27:27;;;;;;;52.13;28.02;;;;;;;;;;5120369;28;20032;-85
2021/03/08 10:29:53;;;;;;;35.55;20.25;;;;;;;;;;5119237;28;20035;-85
2021/03/08 10:32:19;;;;;;;38.60;22.40;;;;;;;;;;5120459;28;20111;-85
2021/03/08 10:34:45;;;;;;;35.38;20.70;;;;;;;;;;5118996;28;20085;-85
2021/03/08 10:37:12;;;;;;;44.78;23.30;;;;;;;;;;5119949;28;20038;-85
2021/03/08 10:39:39;;;;;;;23.52;16.75;;;;;;;;;;5120170;28;20406;-85
2021/03/08 10:42:05;;;;;;;26.05;17.00;;;;;;;;;;5120279;28;20043;-84
2021/03/08 10:44:31;;;;;;;33.80;21.80;;;;;;;;;;5120325;28;20311;-84
2021/03/08 10:46:57;;;;;;;82.78;49.08;;;;;;;;;;5119982;28;20406;-86
2021/03/08 10:49:24;;;;;;;31.55;20.42;;;;;;;;;;5120076;28;20062;-85
2021/03/08 10:51:50;;;;;;;31.60;20.17;;;;;;;;;;5119794;28;20090;-85
2021/03/08 10:54:18;;;;;;;28.73;17.73;;;;;;;;;;5118609;28;20421;-85
2021/03/08 10:56:44;;;;;;;29.23;19.30;;;;;;;;;;5119832;28;20036;-84
2021/03/08 10:59:29;;;;;;;24.73;16.73;;;;;;;;;;5119839;27;20023;-84
2021/03/08 11:02:05;;;;;;;27.38;17.60;;;;;;;;;;5118770;28;20071;-84
2021/03/08 11:04:32;;;;;;;27.08;15.95;;;;;;;;;;5118795;28;20027;-85
2021/03/08 11:06:59;;;;;;;28.67;16.98;;;;;;;;;;5119666;28;20462;-84
2021/03/08 11:09:45;;;;;;;23.67;15.93;;;;;;;;;;5119656;28;20023;-84
2021/03/08 11:12:19;;;;;;;31.23;14.73;;;;;;;;;;5119424;28;20022;-84
2021/03/08 11:14:53;;;;;;;32.38;20.42;;;;;;;;;;5119273;28;20028;-84
2021/03/08 11:17:30;;;;;;;25.15;15.32;;;;;;;;;;5119537;28;20031;-85
2021/03/08 11:20:06;;;;;;;23.80;15.38;;;;;;;;;;5119442;28;20020;-85
2021/03/08 11:22:48;;;;;;;25.45;15.07;;;;;;;;;;5119478;28;20024;-85
2021/03/08 11:25:24;;;;;;;27.30;15.10;;;;;;;;;;5119518;28;20023;-85
2021/03/08 11:27:50;;;;;;;28.85;15.73;;;;;;;;;;5119473;28;20031;-84
2021/03/08 11:30:17;;;;;;;23.15;15.55;;;;;;;;;;5119515;28;20023;-85
2021/03/08 11:32:43;;;;;;;25.48;15.73;;;;;;;;;;5119406;28;20023;-84
2021/03/08 11:35:35;;;;;;;25.60;15.52;;;;;;;;;;5118969;28;20439;-85
2021/03/08 11:38:04;;;;;;;25.80;15.82;;;;;;;;;;5115772;28;20039;-85
2021/03/08 11:40:31;;;;;;;24.10;14.75;;;;;;;;;;5119109;28;20024;-85
2021/03/08 11:42:58;;;;;;;28.27;17.77;;;;;;;;;;5119104;28;20409;-85
2021/03/08 11:45:24;;;;;;;26.65;16.77;;;;;;;;;;5119201;28;20080;-84
2021/03/08 11:48:10;;;;;;;26.00;16.08;;;;;;;;;;5119075;28;20102;-85
2021/03/08 11:50:37;;;;;;;22.08;15.15;;;;;;;;;;5118859;28;20027;-85
2021/03/08 11:53:04;;;;;;;31.08;17.20;;;;;;;;;;5117876;28;20029;-85
2021/03/08 11:55:30;;;;;;;24.98;14.32;;;;;;;;;;5118707;28;20019;-85
2021/03/08 11:57:57;;;;;;;22.90;14.95;;;;;;;;;;5118863;28;20023;-84
2021/03/08 12:00:24;;;;;;;21.05;13.38;;;;;;;;;;5118894;28;20039;-83
2021/03/08 12:02:51;;;;;;;25.17;15.05;;;;;;;;;;5118488;28;20047;-84
2021/03/08 12:05:17;;;;;;;25.35;14.63;;;;;;;;;;5118611;28;20055;-84
2021/03/08 12:07:44;;;;;;;22.58;14.52;;;;;;;;;;5118536;28;20044;-84
2021/03/08 12:10:12;;;;;;;26.77;15.77;;;;;;;;;;5118172;28;20061;-84
2021/03/08 12:12:38;;;;;;;27.65;15.57;;;;;;;;;;5117052;28;20024;-83
2021/03/08 12:15:04;;;;;;;25.35;16.20;;;;;;;;;;5118078;28;20365;-85
2021/03/08 12:17:30;;;;;;;25.92;15.75;;;;;;;;;;5118289;28;20027;-85
2021/03/08 12:19:57;;;;;;;26.90;16.00;;;;;;;;;;5118434;28;20101;-84
2021/03/08 12:22:23;;;;;;;23.58;14.55;;;;;;;;;;5118168;28;20118;-84
2021/03/08 12:24:49;;;;;;;25.02;14.75;;;;;;;;;;5118050;28;20038;-84
2021/03/08 12:27:15;;;;;;;27.23;15.43;;;;;;;;;;5118374;28;20301;-84
2021/03/08 12:29:41;;;;;;;22.70;15.02;;;;;;;;;;5118188;28;20035;-83
2021/03/08 12:32:08;;;;;;;26.38;15.40;;;;;;;;;;5118254;28;20026;-83
2021/03/08 12:34:34;;;;;;;23.88;15.45;;;;;;;;;;5118013;28;20023;-82
2021/03/08 12:37:00;;;;;;;31.25;17.05;;;;;;;;;;5117878;28;20103;-83
2021/03/08 12:39:26;;;;;;;32.25;18.83;;;;;;;;;;5117880;28;20455;-84
2021/03/08 12:41:53;;;;;;;26.98;16.33;;;;;;;;;;5116903;28;20032;-84
2021/03/08 12:44:19;;;;;;;28.17;14.65;;;;;;;;;;5116503;28;20036;-84
2021/03/08 12:46:45;;;;;;;28.23;16.50;;;;;;;;;;5117642;28;20043;-83
2021/03/08 12:49:12;;;;;;;22.58;14.85;;;;;;;;;;5117938;28;20031;-83
2021/03/08 12:51:38;;;;;;;27.30;15.65;;;;;;;;;;5117926;28;20019;-84
2021/03/08 12:54:04;;;;;;;20.17;13.57;;;;;;;;;;5117771;28;20054;-84
2021/03/08 12:56:30;;;;;;;20.08;13.88;;;;;;;;;;5117703;28;20031;-84
2021/03/08 12:58:56;;;;;;;22.13;13.88;;;;;;;;;;5117822;28;20082;-84
2021/03/08 13:01:25;;;;;;;21.55;14.27;;;;;;;;;;5117672;28;20043;-83
2021/03/08 13:03:51;;;;;;;25.67;16.02;;;;;;;;;;5116225;28;20071;-85
2021/03/08 13:06:19;;;;;;;24.73;14.82;;;;;;;;;;5116334;28;20322;-83
2021/03/08 13:08:45;;;;;;;24.33;14.98;;;;;;;;;;5117606;28;20024;-83
2021/03/08 13:11:11;;;;;;;31.00;14.07;;;;;;;;;;5117474;28;20157;-83
2021/03/08 13:13:37;;;;;;;20.52;12.93;;;;;;;;;;5116728;28;20421;-84
2021/03/08 13:16:03;;;;;;;24.10;13.70;;;;;;;;;;5116559;28;20028;-82
2021/03/08 13:18:29;;;;;;;21.65;13.23;;;;;;;;;;5116497;28;20440;-84
2021/03/08 13:20:55;;;;;;;31.52;14.95;;;;;;;;;;5117753;28;20034;-83
2021/03/08 13:23:21;;;;;;;20.33;11.85;;;;;;;;;;5119356;28;20435;-83
2021/03/08 13:25:47;;;;;;;24.58;13.75;;;;;;;;;;5120288;28;20407;-83
2021/03/08 13:28:13;;;;;;;27.08;14.10;;;;;;;;;;5121774;28;20015;-83
2021/03/08 13:30:41;;;;;;;20.13;12.48;;;;;;;;;;5121727;28;20028;-83
2021/03/08 13:33:07;;;;;;;22.90;15.23;;;;;;;;;;5121497;28;20034;-83
2021/03/08 13:35:33;;;;;;;20.38;14.13;;;;;;;;;;5121494;28;20020;-87
2021/03/08 13:37:59;;;;;;;23.48;14.48;;;;;;;;;;5120643;28;20024;-84
2021/03/08 13:40:26;;;;;;;16.77;11.00;;;;;;;;;;5121262;28;20125;-84
2021/03/08 13:42:52;;;;;;;20.77;12.55;;;;;;;;;;5121375;28;20031;-84
2021/03/08 13:45:18;;;;;;;23.40;13.63;;;;;;;;;;5121394;28;20031;-85
2021/03/08 13:47:44;;;;;;;22.60;13.95;;;;;;;;;;5121725;28;20015;-85
2021/03/08 13:50:11;;;;;;;20.08;12.52;;;;;;;;;;5121516;28;20077;-85
2021/03/08 13:52:37;;;;;;;25.42;12.57;;;;;;;;;;5120954;28;20020;-85
2021/03/08 13:55:04;;;;;;;20.33;12.48;;;;;;;;;;5120029;28;20057;-84
2021/03/08 13:57:30;;;;;;;18.65;11.48;;;;;;;;;;5119927;28;20036;-84
2021/03/08 13:59:56;;;;;;;16.65;11.70;;;;;;;;;;5121094;28;20035;-86
2021/03/08 14:02:22;;;;;;;18.90;12.10;;;;;;;;;;5120889;28;20035;-85
2021/03/08 14:04:50;;;;;;;20.30;13.00;;;;;;;;;;5121053;28;20348;-85
2021/03/08 14:07:16;;;;;;;29.52;13.23;;;;;;;;;;5120931;28;20027;-85
2021/03/08 14:09:42;;;;;;;17.88;12.93;;;;;;;;;;5120886;27;20020;-85
2021/03/08 14:12:08;;;;;;;22.08;13.32;;;;;;;;;;5120775;28;20032;-84
2021/03/08 14:14:35;;;;;;;22.48;13.88;;;;;;;;;;5120645;28;20436;-84
2021/03/08 14:17:01;;;;;;;34.33;17.15;;;;;;;;;;5119633;28;20023;-84